AGROMETEOROLOŠKI PORTAL

vinorodna pokrajina

Temelj dobrega kmetovanja

Pregled podatkov za lokacijo KRŠKO - NEK ARSO, meteorološka postaja 116

Pregled senzorjev na lokaciji

ID Ime Zadnja
vrednost
Datum in čas
meritve
(lokalni čas)
Tip
senzorja
6031 Zračni tlak (hPa) 1008 hPa 6.10.2022 05:30 ARSO
2599 Sončno sevanje (W/m2) 0 W/m2 6.10.2022 05:30 ARSO
2605 Padavine (mm) 0 mm 6.10.2022 05:30 ARSO
2613 Relativna zračna vlaga (2 m) (% RH) 100 % RH 6.10.2022 05:30 ARSO
2612 Temperatura (2 m) (°C) 8,8 °C 6.10.2022 05:30 ARSO
2617 Smer vetra (2 m) (°) 87 ° 6.10.2022 05:30 ARSO
2618 Hitrost vetra (2 m) (km/h) 2 km/h 6.10.2022 05:30 ARSO

Pregled podatkov zadnjih 24 ur

Zap.
št.
Datum in čas
(lokalni čas)
KRŠKO - NEK ARSO
Zračni
tlak
Sončno
sevanje
Padavine Relativna
zračna
vlaga
(2
m)
Temperatura
(2
m)
Smer
vetra
(2
m)
Hitrost
vetra
(2
m)
1 6.10.2022 05:30 1008,1 0 0 100 8,8 87 2
2 6.10.2022 05:00 1008 0 0 100 8,9 221 4
3 6.10.2022 04:30 1007,9 0 0 100 9,4 249 3
4 6.10.2022 04:00 1008 0 0 100 9,4 259 5
5 6.10.2022 03:30 1008,1 0 0 100 8,6 270 3
6 6.10.2022 03:00 1008,1 0 0 100 9 218 2
7 6.10.2022 02:30 1008,1 0 0 100 9,1 275 2
8 6.10.2022 02:00 1008,1 0 0 100 9,3 275 2
9 6.10.2022 01:30 1008 0 0 100 9,5 277 2
10 6.10.2022 01:00 1007,9 0 0 100 10 99 1
11 6.10.2022 00:30 1007,9 0 0 100 10,1 343 2
12 6.10.2022 00:00 1007,9 0 0 100 10,4 266 1
13 5.10.2022 23:30 1007,9 0 0 100 10,8 242 1
14 5.10.2022 23:00 1007,8 0 0 100 11,2 273 1
15 5.10.2022 22:30 1007,7 0 0 100 11,3 294 2
16 5.10.2022 22:00 1007,7 0 0 100 12 42 1
17 5.10.2022 21:30 1007,5 0 0 100 12,6 306 3
18 5.10.2022 21:00 1007,4 0 0 100 13,3 284 4
19 5.10.2022 20:30 1007,2 0 0 100 13,9 294 4
20 5.10.2022 20:00 1007,1 0 0 100 14,8 295 4
21 5.10.2022 19:30 1007 0 0 100 16,1 301 5
22 5.10.2022 19:00 1006,9 0 0 99 18,2 86 3
23 5.10.2022 18:30 1006,7 10 0 84 19,8 79 3
24 5.10.2022 18:00 1006,7 55 0 62 21,1 132 3
25 5.10.2022 17:30 1006,9 152 0 58 21,6 132 5
26 5.10.2022 17:00 1007 265 0 56 21,8 108 7
27 5.10.2022 16:30 1007,3 320 0 55 21,9 111 8
28 5.10.2022 16:00 1007,5 352 0 57 21,7 132 5
29 5.10.2022 15:30 1007,5 419 0 59 21,7 131 6
30 5.10.2022 15:00 1007,8 476 0 60 21,5 128 7
31 5.10.2022 14:30 1008,1 547 0 62 21,3 124 6
32 5.10.2022 14:00 1008,4 605 0 64 20,9 95 4
33 5.10.2022 13:30 1008,7 630 0 66 20,3 162 3
34 5.10.2022 13:00 1009 635 0 70 19,3 164 4
35 5.10.2022 12:30 1009,2 629 0 72 18,4 172 4
36 5.10.2022 12:00 1009,4 595 0 79 17,4 184 4
37 5.10.2022 11:30 1009,5 549 0 89 16,4 165 4
38 5.10.2022 11:00 1009,5 530 0 99 15 191 4
39 5.10.2022 10:30 1009,5 467 0 100 13,3 185 4
40 5.10.2022 10:00 1009,5 372 0 100 11,2 156 3
41 5.10.2022 09:30 1009,5 301 0 100 9,5 197 4
42 5.10.2022 09:00 1009,4 192 0 100 8,3 210 4
43 5.10.2022 08:30 1009,3 115 0 100 7,2 203 3
44 5.10.2022 08:00 1009,1 49 0 100 6,2 265 2
45 5.10.2022 07:30 1008,8 5 0 100 6,1 252 1